Nissho Maru No.18 — JL6369 — position and weather

sailwx.info

Track history (hours):
 
Tides and Currents Weather Stations Pressure Air Temp Water Temp Dewpoint Dewpoint Depression Visibility Wind Speed Wind Dir Waves Ship Positions

Nissho Maru No.18

Last reported at 2014-Jul-22 21:28 UTC. Time now 2014-Jul-22 21:36 UTC.
Position N 34°31' E 135°20'.

Length 65 m; draft 4 m.

Type: Tanker. MMSI: 431500465.

Date/timePositionNaut miles runAvg speedWind from/ knotsBaromVisibWave heightAir tempDewpointWater temp
2014-Jul-22 21:28N 34°31' E 135°20'0 0.0
2014-Jul-22 20:28N 34°31' E 135°20'0 0.0
2014-Jul-22 19:28N 34°31' E 135°20'0 0.0
2014-Jul-22 18:28N 34°31' E 135°20'0 0.1
2014-Jul-22 17:32N 34°31' E 135°20'0 0.0
2014-Jul-22 15:32N 34°31' E 135°20'0 0.0
2014-Jul-22 14:32N 34°31' E 135°20'0 0.0
2014-Jul-22 13:32N 34°31' E 135°20'0 0.0
2014-Jul-22 12:32N 34°31' E 135°20'0 0.0
2014-Jul-22 11:32N 34°31' E 135°20'0 0.0
2014-Jul-22 10:14N 34°31' E 135°20'0 0.3
2014-Jul-22 09:33N 34°31' E 135°20'1511.8
2014-Jul-22 08:17N 34°21' E 135°06'912.2
2014-Jul-22 07:33N 34°13' E 135°03'1212.5
2014-Jul-22 06:33N 34°00' E 135°03'208 9.9
2014-Jul-21 09:33N 34°49' E 139°08'2110.6
2014-Jul-21 07:33N 35°02' E 139°29'1111.0
2014-Jul-21 06:33N 35°06' E 139°41'1110.7
2014-Jul-21 05:33N 35°17' E 139°45'10 9.8
2014-Jul-21 04:33N 35°26' E 139°45'5 4.8
2014-Jul-21 03:33N 35°31' E 139°45'0 0.0
2014-Jul-21 02:33N 35°31' E 139°45'0 0.0
2014-Jul-21 01:33N 35°31' E 139°45'1 1.4
2014-Jul-21 00:33N 35°31' E 139°46'2 2.5
2014-Jul-20 23:33N 35°29' E 139°48'0 0.0
2014-Jul-20 22:33N 35°29' E 139°48'0 0.0
2014-Jul-20 21:33N 35°29' E 139°48'0 0.0
2014-Jul-20 20:33N 35°29' E 139°48'0 0.0
2014-Jul-20 19:33N 35°29' E 139°48'0 0.0
2014-Jul-20 18:33N 35°29' E 139°48'0 0.0
2014-Jul-20 17:33N 35°29' E 139°48'0 0.0
2014-Jul-20 16:33N 35°29' E 139°48'0 0.1
2014-Jul-20 15:33N 35°29' E 139°48'10 9.7
2014-Jul-20 14:34N 35°20' E 139°44'10 9.9
2014-Jul-20 13:33N 35°10' E 139°46'1010.3
2014-Jul-20 12:33N 35°01' E 139°39'235 9.4
2014-Jul-19 11:26N 34°03' E 135°02'1010.9
2014-Jul-19 10:33N 34°12' E 135°03'1110.7
2014-Jul-19 09:33N 34°22' E 135°07'1010.5
2014-Jul-19 08:33N 34°29' E 135°17'7 1.1
2014-Jul-19 02:06N 34°32' E 135°25'1 1.5
2014-Jul-19 01:33N 34°32' E 135°24'3 1.5
2014-Jul-18 23:33N 34°32' E 135°20'0 0.0
2014-Jul-18 21:27N 34°32' E 135°20'0 0.0
2014-Jul-18 20:33N 34°32' E 135°20'0 0.0
2014-Jul-18 19:27N 34°32' E 135°20'0 0.0
2014-Jul-18 18:33N 34°32' E 135°20'0 0.0
2014-Jul-18 17:33N 34°32' E 135°20'0 0.0
2014-Jul-18 15:30N 34°32' E 135°20'0 0.1
2014-Jul-18 14:30N 34°32' E 135°20'0 0.0
2014-Jul-18 13:30N 34°32' E 135°20'0 0.0
2014-Jul-18 10:30N 34°32' E 135°20'0 0.0
2014-Jul-18 07:12N 34°32' E 135°20'1 2.3
2014-Jul-18 06:33N 34°32' E 135°18'1211.5
2014-Jul-18 05:33N 34°35' E 135°05'10 9.9
2014-Jul-18 04:32N 34°37' E 134°53'8 0.7
2014-Jul-17 17:20N 34°41' E 134°45'911.2
2014-Jul-17 16:33N 34°37' E 134°55'10 9.8
2014-Jul-17 15:33N 34°32' E 135°05'1312.2
2014-Jul-17 14:31N 34°20' E 135°01'1212.2
2014-Jul-17 13:33N 34°08' E 135°01'207 8.6
2014-Jul-16 13:32N 34°48' E 139°07'2010.1
2014-Jul-16 11:33N 35°00' E 139°26'9 9.2
2014-Jul-16 10:33N 35°04' E 139°36'9 9.4
2014-Jul-16 09:33N 35°11' E 139°45'9 8.7
2014-Jul-16 08:33N 35°19' E 139°43'9 8.6
2014-Jul-16 07:33N 35°27' E 139°47'10 9.6
2014-Jul-16 06:33N 35°32' E 139°58'5 4.6
2014-Jul-16 05:33N 35°32' E 140°03'0 0.0
2014-Jul-16 04:33N 35°32' E 140°03'0 0.0
2014-Jul-16 03:33N 35°32' E 140°03'0 0.0
2014-Jul-16 02:33N 35°32' E 140°03'2 2.3
2014-Jul-16 01:33N 35°31' E 140°01'6 6.1
2014-Jul-16 00:31N 35°28' E 139°54'0 0.0
2014-Jul-15 23:28N 35°28' E 139°54'0 0.0
2014-Jul-15 22:31N 35°28' E 139°54'0 0.0
2014-Jul-15 21:31N 35°28' E 139°54'5 5.1
2014-Jul-15 20:33N 35°26' E 139°49'1010.2
2014-Jul-15 19:34N 35°16' E 139°47'1110.9
2014-Jul-15 18:33N 35°05' E 139°44'1111.1
2014-Jul-15 17:33N 34°58' E 139°34'2512.6
2014-Jul-15 15:33N 34°42' E 139°10'  
2014-Jul-13 11:32N 34°05' E 134°48'  
Track history (hours):
 
Tides and Currents Weather Stations Pressure Air Temp Water Temp Dewpoint Dewpoint Depression Visibility Wind Speed Wind Dir Waves Ship Positions

Nissho Maru No.18

Last reported at 2014-Jul-22 21:28 UTC. Time now 2014-Jul-22 21:36 UTC.
Position N 34°31' E 135°20'.

Length 65 m; draft 4 m.

Type: Tanker. MMSI: 431500465.

Date/timePositionNaut miles runAvg speedWind from/ knotsBaromVisibWave heightAir tempDewpointWater temp
2014-Jul-22 21:28N 34°31' E 135°20'0 0.0
2014-Jul-22 20:28N 34°31' E 135°20'0 0.0
2014-Jul-22 19:28N 34°31' E 135°20'0 0.0
2014-Jul-22 18:28N 34°31' E 135°20'0 0.1
2014-Jul-22 17:32N 34°31' E 135°20'0 0.0
2014-Jul-22 15:32N 34°31' E 135°20'0 0.0
2014-Jul-22 14:32N 34°31' E 135°20'0 0.0
2014-Jul-22 13:32N 34°31' E 135°20'0 0.0
2014-Jul-22 12:32N 34°31' E 135°20'0 0.0
2014-Jul-22 11:32N 34°31' E 135°20'0 0.0
2014-Jul-22 10:14N 34°31' E 135°20'0 0.3
2014-Jul-22 09:33N 34°31' E 135°20'1511.8
2014-Jul-22 08:17N 34°21' E 135°06'912.2
2014-Jul-22 07:33N 34°13' E 135°03'1212.5
2014-Jul-22 06:33N 34°00' E 135°03'208 9.9
2014-Jul-21 09:33N 34°49' E 139°08'2110.6
2014-Jul-21 07:33N 35°02' E 139°29'1111.0
2014-Jul-21 06:33N 35°06' E 139°41'1110.7
2014-Jul-21 05:33N 35°17' E 139°45'10 9.8
2014-Jul-21 04:33N 35°26' E 139°45'5 4.8
2014-Jul-21 03:33N 35°31' E 139°45'0 0.0
2014-Jul-21 02:33N 35°31' E 139°45'0 0.0
2014-Jul-21 01:33N 35°31' E 139°45'1 1.4
2014-Jul-21 00:33N 35°31' E 139°46'2 2.5
2014-Jul-20 23:33N 35°29' E 139°48'0 0.0
2014-Jul-20 22:33N 35°29' E 139°48'0 0.0
2014-Jul-20 21:33N 35°29' E 139°48'0 0.0
2014-Jul-20 20:33N 35°29' E 139°48'0 0.0
2014-Jul-20 19:33N 35°29' E 139°48'0 0.0
2014-Jul-20 18:33N 35°29' E 139°48'0 0.0
2014-Jul-20 17:33N 35°29' E 139°48'0 0.0
2014-Jul-20 16:33N 35°29' E 139°48'0 0.1
2014-Jul-20 15:33N 35°29' E 139°48'10 9.7
2014-Jul-20 14:34N 35°20' E 139°44'10 9.9
2014-Jul-20 13:33N 35°10' E 139°46'1010.3
2014-Jul-20 12:33N 35°01' E 139°39'235 9.4
2014-Jul-19 11:26N 34°03' E 135°02'1010.9
2014-Jul-19 10:33N 34°12' E 135°03'1110.7
2014-Jul-19 09:33N 34°22' E 135°07'1010.5
2014-Jul-19 08:33N 34°29' E 135°17'7 1.1
2014-Jul-19 02:06N 34°32' E 135°25'1 1.5
2014-Jul-19 01:33N 34°32' E 135°24'3 1.5
2014-Jul-18 23:33N 34°32' E 135°20'0 0.0
2014-Jul-18 21:27N 34°32' E 135°20'0 0.0
2014-Jul-18 20:33N 34°32' E 135°20'0 0.0
2014-Jul-18 19:27N 34°32' E 135°20'0 0.0
2014-Jul-18 18:33N 34°32' E 135°20'0 0.0
2014-Jul-18 17:33N 34°32' E 135°20'0 0.0
2014-Jul-18 15:30N 34°32' E 135°20'0 0.1
2014-Jul-18 14:30N 34°32' E 135°20'0 0.0
2014-Jul-18 13:30N 34°32' E 135°20'0 0.0
2014-Jul-18 10:30N 34°32' E 135°20'0 0.0
2014-Jul-18 07:12N 34°32' E 135°20'1 2.3
2014-Jul-18 06:33N 34°32' E 135°18'1211.5
2014-Jul-18 05:33N 34°35' E 135°05'10 9.9
2014-Jul-18 04:32N 34°37' E 134°53'8 0.7
2014-Jul-17 17:20N 34°41' E 134°45'911.2
2014-Jul-17 16:33N 34°37' E 134°55'10 9.8
2014-Jul-17 15:33N 34°32' E 135°05'1312.2
2014-Jul-17 14:31N 34°20' E 135°01'1212.2
2014-Jul-17 13:33N 34°08' E 135°01'207 8.6
2014-Jul-16 13:32N 34°48' E 139°07'2010.1
2014-Jul-16 11:33N 35°00' E 139°26'9 9.2
2014-Jul-16 10:33N 35°04' E 139°36'9 9.4
2014-Jul-16 09:33N 35°11' E 139°45'9 8.7
2014-Jul-16 08:33N 35°19' E 139°43'9 8.6
2014-Jul-16 07:33N 35°27' E 139°47'10 9.6
2014-Jul-16 06:33N 35°32' E 139°58'5 4.6
2014-Jul-16 05:33N 35°32' E 140°03'0 0.0
2014-Jul-16 04:33N 35°32' E 140°03'0 0.0
2014-Jul-16 03:33N 35°32' E 140°03'0 0.0
2014-Jul-16 02:33N 35°32' E 140°03'2 2.3
2014-Jul-16 01:33N 35°31' E 140°01'6 6.1
2014-Jul-16 00:31N 35°28' E 139°54'0 0.0
2014-Jul-15 23:28N 35°28' E 139°54'0 0.0
2014-Jul-15 22:31N 35°28' E 139°54'0 0.0
2014-Jul-15 21:31N 35°28' E 139°54'5 5.1
2014-Jul-15 20:33N 35°26' E 139°49'1010.2
2014-Jul-15 19:34N 35°16' E 139°47'1110.9
2014-Jul-15 18:33N 35°05' E 139°44'1111.1
2014-Jul-15 17:33N 34°58' E 139°34'2512.6
2014-Jul-15 15:33N 34°42' E 139°10'  
2014-Jul-13 11:32N 34°05' E 134°48'  

Dump ship's entire track history